sensor_id;sensor_type;location;lat;lon;timestamp;P1;durP1;ratioP1;P2;durP2;ratioP2
16197;SDS011;8206;51.440;6.914;2023-06-22T00:02:00;3.60;;;1.92;;
16197;SDS011;8206;51.440;6.914;2023-06-22T00:04:27;0.88;;;0.85;;
16197;SDS011;8206;51.440;6.914;2023-06-22T00:06:54;1.88;;;1.77;;
16197;SDS011;8206;51.440;6.914;2023-06-22T00:09:20;2.13;;;2.03;;
16197;SDS011;8206;51.440;6.914;2023-06-22T00:11:48;2.40;;;2.08;;
16197;SDS011;8206;51.440;6.914;2023-06-22T00:14:15;1.70;;;1.60;;
16197;SDS011;8206;51.440;6.914;2023-06-22T00:16:41;3.53;;;1.77;;
16197;SDS011;8206;51.440;6.914;2023-06-22T00:19:08;1.40;;;1.33;;
16197;SDS011;8206;51.440;6.914;2023-06-22T00:21:36;1.92;;;1.38;;
16197;SDS011;8206;51.440;6.914;2023-06-22T00:24:04;1.70;;;1.70;;
16197;SDS011;8206;51.440;6.914;2023-06-22T00:26:31;1.60;;;1.38;;
16197;SDS011;8206;51.440;6.914;2023-06-22T00:28:59;1.65;;;1.55;;
16197;SDS011;8206;51.440;6.914;2023-06-22T00:31:25;2.10;;;1.95;;
16197;SDS011;8206;51.440;6.914;2023-06-22T00:33:52;1.55;;;1.50;;
16197;SDS011;8206;51.440;6.914;2023-06-22T00:36:19;1.40;;;1.30;;
16197;SDS011;8206;51.440;6.914;2023-06-22T00:38:45;1.38;;;1.35;;
16197;SDS011;8206;51.440;6.914;2023-06-22T00:41:15;2.42;;;2.33;;
16197;SDS011;8206;51.440;6.914;2023-06-22T00:43:42;1.02;;;0.95;;
16197;SDS011;8206;51.440;6.914;2023-06-22T00:46:10;1.20;;;1.13;;
16197;SDS011;8206;51.440;6.914;2023-06-22T00:48:37;1.52;;;1.45;;
16197;SDS011;8206;51.440;6.914;2023-06-22T00:51:06;1.60;;;1.58;;
16197;SDS011;8206;51.440;6.914;2023-06-22T00:53:33;3.42;;;2.17;;
16197;SDS011;8206;51.440;6.914;2023-06-22T00:56:02;1.08;;;1.08;;
16197;SDS011;8206;51.440;6.914;2023-06-22T00:58:30;3.88;;;1.52;;
16197;SDS011;8206;51.440;6.914;2023-06-22T01:00:57;1.83;;;1.73;;
16197;SDS011;8206;51.440;6.914;2023-06-22T01:03:26;1.92;;;1.05;;
16197;SDS011;8206;51.440;6.914;2023-06-22T01:05:53;6.13;;;1.10;;
16197;SDS011;8206;51.440;6.914;2023-06-22T01:08:29;1.40;;;1.30;;
16197;SDS011;8206;51.440;6.914;2023-06-22T01:11:06;1.60;;;1.55;;
16197;SDS011;8206;51.440;6.914;2023-06-22T01:13:37;2.10;;;2.00;;
16197;SDS011;8206;51.440;6.914;2023-06-22T01:16:12;1.55;;;1.45;;
16197;SDS011;8206;51.440;6.914;2023-06-22T01:18:46;1.52;;;1.42;;
16197;SDS011;8206;51.440;6.914;2023-06-22T01:21:16;3.85;;;3.22;;
16197;SDS011;8206;51.440;6.914;2023-06-22T01:23:50;5.07;;;2.67;;
16197;SDS011;8206;51.440;6.914;2023-06-22T01:26:25;1.27;;;1.27;;
16197;SDS011;8206;51.440;6.914;2023-06-22T01:29:02;1.73;;;1.63;;
16197;SDS011;8206;51.440;6.914;2023-06-22T01:31:30;1.17;;;1.17;;
16197;SDS011;8206;51.440;6.914;2023-06-22T01:34:00;1.85;;;1.10;;
16197;SDS011;8206;51.440;6.914;2023-06-22T01:36:28;1.98;;;1.67;;
16197;SDS011;8206;51.440;6.914;2023-06-22T01:38:57;1.80;;;1.58;;
16197;SDS011;8206;51.440;6.914;2023-06-22T01:41:25;2.10;;;2.00;;
16197;SDS011;8206;51.440;6.914;2023-06-22T01:43:54;2.80;;;2.10;;
16197;SDS011;8206;51.440;6.914;2023-06-22T01:46:23;1.90;;;1.80;;
16197;SDS011;8206;51.440;6.914;2023-06-22T01:48:50;0.82;;;0.82;;
16197;SDS011;8206;51.440;6.914;2023-06-22T01:51:18;1.98;;;1.88;;
16197;SDS011;8206;51.440;6.914;2023-06-22T01:53:45;6.90;;;2.20;;
16197;SDS011;8206;51.440;6.914;2023-06-22T01:56:12;5.05;;;2.15;;
16197;SDS011;8206;51.440;6.914;2023-06-22T01:58:43;2.10;;;2.00;;
16197;SDS011;8206;51.440;6.914;2023-06-22T02:01:17;2.13;;;1.67;;
16197;SDS011;8206;51.440;6.914;2023-06-22T02:03:53;2.42;;;2.22;;
16197;SDS011;8206;51.440;6.914;2023-06-22T02:06:27;2.33;;;2.22;;
16197;SDS011;8206;51.440;6.914;2023-06-22T02:09:00;1.00;;;1.00;;
16197;SDS011;8206;51.440;6.914;2023-06-22T02:11:30;2.00;;;1.90;;
16197;SDS011;8206;51.440;6.914;2023-06-22T02:13:59;5.18;;;3.38;;
16197;SDS011;8206;51.440;6.914;2023-06-22T02:16:26;1.25;;;1.25;;
16197;SDS011;8206;51.440;6.914;2023-06-22T02:18:56;7.40;;;2.13;;
16197;SDS011;8206;51.440;6.914;2023-06-22T02:21:28;1.73;;;1.35;;
16197;SDS011;8206;51.440;6.914;2023-06-22T02:23:54;4.30;;;2.70;;
16197;SDS011;8206;51.440;6.914;2023-06-22T02:26:21;1.42;;;1.40;;
16197;SDS011;8206;51.440;6.914;2023-06-22T02:28:49;3.40;;;1.85;;
16197;SDS011;8206;51.440;6.914;2023-06-22T02:31:16;2.53;;;2.42;;
16197;SDS011;8206;51.440;6.914;2023-06-22T02:33:43;1.88;;;1.48;;
16197;SDS011;8206;51.440;6.914;2023-06-22T02:36:11;1.88;;;1.77;;
16197;SDS011;8206;51.440;6.914;2023-06-22T02:38:38;1.50;;;1.45;;
16197;SDS011;8206;51.440;6.914;2023-06-22T02:41:13;2.33;;;1.38;;
16197;SDS011;8206;51.440;6.914;2023-06-22T02:43:43;2.15;;;2.05;;
16197;SDS011;8206;51.440;6.914;2023-06-22T02:46:10;2.70;;;2.47;;
16197;SDS011;8206;51.440;6.914;2023-06-22T02:48:37;1.17;;;1.17;;
16197;SDS011;8206;51.440;6.914;2023-06-22T02:51:04;2.30;;;2.20;;
16197;SDS011;8206;51.440;6.914;2023-06-22T02:53:33;2.70;;;2.53;;
16197;SDS011;8206;51.440;6.914;2023-06-22T02:56:00;3.00;;;2.65;;
16197;SDS011;8206;51.440;6.914;2023-06-22T02:58:28;1.58;;;1.48;;
16197;SDS011;8206;51.440;6.914;2023-06-22T03:00:55;1.70;;;1.60;;
16197;SDS011;8206;51.440;6.914;2023-06-22T03:03:21;2.45;;;2.35;;
16197;SDS011;8206;51.440;6.914;2023-06-22T03:05:51;7.80;;;1.60;;
16197;SDS011;8206;51.440;6.914;2023-06-22T03:08:18;1.98;;;1.88;;
16197;SDS011;8206;51.440;6.914;2023-06-22T03:10:46;2.70;;;2.50;;
16197;SDS011;8206;51.440;6.914;2023-06-22T03:13:12;4.78;;;1.90;;
16197;SDS011;8206;51.440;6.914;2023-06-22T03:15:39;2.70;;;2.38;;
16197;SDS011;8206;51.440;6.914;2023-06-22T03:18:06;2.15;;;2.00;;
16197;SDS011;8206;51.440;6.914;2023-06-22T03:20:32;2.70;;;2.60;;
16197;SDS011;8206;51.440;6.914;2023-06-22T03:22:59;1.73;;;1.63;;
16197;SDS011;8206;51.440;6.914;2023-06-22T03:25:26;1.95;;;1.83;;
16197;SDS011;8206;51.440;6.914;2023-06-22T03:27:54;3.22;;;3.03;;
16197;SDS011;8206;51.440;6.914;2023-06-22T03:30:20;2.70;;;2.50;;
16197;SDS011;8206;51.440;6.914;2023-06-22T03:32:47;3.00;;;2.80;;
16197;SDS011;8206;51.440;6.914;2023-06-22T03:35:14;3.33;;;2.28;;
16197;SDS011;8206;51.440;6.914;2023-06-22T03:37:40;2.58;;;2.47;;
16197;SDS011;8206;51.440;6.914;2023-06-22T03:40:08;2.78;;;2.65;;
16197;SDS011;8206;51.440;6.914;2023-06-22T03:42:35;1.95;;;1.90;;
16197;SDS011;8206;51.440;6.914;2023-06-22T03:45:03;2.63;;;2.45;;
16197;SDS011;8206;51.440;6.914;2023-06-22T03:47:31;2.03;;;1.92;;
16197;SDS011;8206;51.440;6.914;2023-06-22T03:49:58;1.88;;;1.77;;
16197;SDS011;8206;51.440;6.914;2023-06-22T03:52:25;3.50;;;2.88;;
16197;SDS011;8206;51.440;6.914;2023-06-22T03:54:52;3.00;;;2.83;;
16197;SDS011;8206;51.440;6.914;2023-06-22T03:57:18;3.03;;;2.83;;
16197;SDS011;8206;51.440;6.914;2023-06-22T03:59:45;2.75;;;2.65;;
16197;SDS011;8206;51.440;6.914;2023-06-22T04:02:13;2.15;;;2.05;;
16197;SDS011;8206;51.440;6.914;2023-06-22T04:04:40;1.92;;;1.85;;
16197;SDS011;8206;51.440;6.914;2023-06-22T04:07:06;3.22;;;2.80;;
16197;SDS011;8206;51.440;6.914;2023-06-22T04:09:33;2.33;;;2.22;;
16197;SDS011;8206;51.440;6.914;2023-06-22T04:12:00;3.47;;;3.22;;
16197;SDS011;8206;51.440;6.914;2023-06-22T04:14:27;3.25;;;2.90;;
16197;SDS011;8206;51.440;6.914;2023-06-22T04:16:54;2.45;;;2.35;;
16197;SDS011;8206;51.440;6.914;2023-06-22T04:19:22;2.38;;;2.28;;
16197;SDS011;8206;51.440;6.914;2023-06-22T04:21:48;4.75;;;4.15;;
16197;SDS011;8206;51.440;6.914;2023-06-22T04:24:15;3.20;;;3.00;;
16197;SDS011;8206;51.440;6.914;2023-06-22T04:26:42;3.65;;;3.35;;
16197;SDS011;8206;51.440;6.914;2023-06-22T04:29:10;4.07;;;3.85;;
16197;SDS011;8206;51.440;6.914;2023-06-22T04:31:37;2.58;;;2.45;;
16197;SDS011;8206;51.440;6.914;2023-06-22T04:34:04;3.60;;;3.30;;
16197;SDS011;8206;51.440;6.914;2023-06-22T04:36:37;6.00;;;4.72;;
16197;SDS011;8206;51.440;6.914;2023-06-22T04:39:06;3.42;;;3.17;;
16197;SDS011;8206;51.440;6.914;2023-06-22T04:41:34;2.95;;;2.67;;
16197;SDS011;8206;51.440;6.914;2023-06-22T04:44:07;3.53;;;3.22;;
16197;SDS011;8206;51.440;6.914;2023-06-22T04:46:34;3.67;;;3.30;;
16197;SDS011;8206;51.440;6.914;2023-06-22T04:49:03;2.65;;;2.45;;
16197;SDS011;8206;51.440;6.914;2023-06-22T04:51:36;3.58;;;3.28;;
16197;SDS011;8206;51.440;6.914;2023-06-22T04:54:04;6.90;;;4.38;;
16197;SDS011;8206;51.440;6.914;2023-06-22T04:56:31;3.40;;;3.10;;
16197;SDS011;8206;51.440;6.914;2023-06-22T04:58:58;4.20;;;3.90;;
16197;SDS011;8206;51.440;6.914;2023-06-22T05:01:25;3.67;;;3.47;;
16197;SDS011;8206;51.440;6.914;2023-06-22T05:03:52;3.80;;;3.50;;
16197;SDS011;8206;51.440;6.914;2023-06-22T05:06:20;4.57;;;3.20;;
16197;SDS011;8206;51.440;6.914;2023-06-22T05:08:50;2.95;;;2.75;;
16197;SDS011;8206;51.440;6.914;2023-06-22T05:11:17;11.68;;;2.97;;
16197;SDS011;8206;51.440;6.914;2023-06-22T05:13:44;3.28;;;2.97;;
16197;SDS011;8206;51.440;6.914;2023-06-22T05:16:10;4.80;;;3.05;;
16197;SDS011;8206;51.440;6.914;2023-06-22T05:18:37;3.97;;;3.50;;
16197;SDS011;8206;51.440;6.914;2023-06-22T05:21:04;3.97;;;3.63;;
16197;SDS011;8206;51.440;6.914;2023-06-22T05:23:30;2.22;;;2.13;;
16197;SDS011;8206;51.440;6.914;2023-06-22T05:25:58;2.60;;;2.50;;
16197;SDS011;8206;51.440;6.914;2023-06-22T05:28:25;3.90;;;3.55;;
16197;SDS011;8206;51.440;6.914;2023-06-22T05:30:52;3.83;;;3.63;;
16197;SDS011;8206;51.440;6.914;2023-06-22T05:33:19;2.70;;;2.60;;
16197;SDS011;8206;51.440;6.914;2023-06-22T05:35:45;2.13;;;2.03;;
16197;SDS011;8206;51.440;6.914;2023-06-22T05:38:12;3.58;;;2.50;;
16197;SDS011;8206;51.440;6.914;2023-06-22T05:40:39;3.53;;;3.33;;
16197;SDS011;8206;51.440;6.914;2023-06-22T05:43:07;3.17;;;2.97;;
16197;SDS011;8206;51.440;6.914;2023-06-22T05:45:33;3.70;;;3.40;;
16197;SDS011;8206;51.440;6.914;2023-06-22T05:48:00;3.45;;;2.70;;
16197;SDS011;8206;51.440;6.914;2023-06-22T05:50:27;3.90;;;3.58;;
16197;SDS011;8206;51.440;6.914;2023-06-22T05:52:53;3.30;;;3.05;;
16197;SDS011;8206;51.440;6.914;2023-06-22T05:55:20;3.17;;;2.97;;
16197;SDS011;8206;51.440;6.914;2023-06-22T05:57:47;3.72;;;3.47;;
16197;SDS011;8206;51.440;6.914;2023-06-22T06:00:15;4.13;;;2.58;;
16197;SDS011;8206;51.440;6.914;2023-06-22T06:02:43;3.03;;;2.83;;
16197;SDS011;8206;51.440;6.914;2023-06-22T06:05:10;4.05;;;3.20;;
16197;SDS011;8206;51.440;6.914;2023-06-22T06:07:39;3.75;;;3.55;;
16197;SDS011;8206;51.440;6.914;2023-06-22T06:10:06;4.65;;;4.35;;
16197;SDS011;8206;51.440;6.914;2023-06-22T06:12:33;3.58;;;3.28;;
16197;SDS011;8206;51.440;6.914;2023-06-22T06:15:00;3.90;;;3.67;;
16197;SDS011;8206;51.440;6.914;2023-06-22T06:17:28;3.60;;;3.30;;
16197;SDS011;8206;51.440;6.914;2023-06-22T06:19:55;4.03;;;3.50;;
16197;SDS011;8206;51.440;6.914;2023-06-22T06:22:21;4.35;;;3.45;;
16197;SDS011;8206;51.440;6.914;2023-06-22T06:24:48;2.85;;;2.50;;
16197;SDS011;8206;51.440;6.914;2023-06-22T06:27:15;4.15;;;3.70;;
16197;SDS011;8206;51.440;6.914;2023-06-22T06:29:44;5.57;;;5.30;;
16197;SDS011;8206;51.440;6.914;2023-06-22T06:32:13;4.50;;;4.20;;
16197;SDS011;8206;51.440;6.914;2023-06-22T06:34:41;3.58;;;3.35;;
16197;SDS011;8206;51.440;6.914;2023-06-22T06:37:08;4.60;;;4.15;;
16197;SDS011;8206;51.440;6.914;2023-06-22T06:39:35;3.38;;;3.17;;
16197;SDS011;8206;51.440;6.914;2023-06-22T06:42:01;3.53;;;3.33;;
16197;SDS011;8206;51.440;6.914;2023-06-22T06:44:30;2.60;;;2.50;;
16197;SDS011;8206;51.440;6.914;2023-06-22T06:46:57;5.28;;;4.88;;
16197;SDS011;8206;51.440;6.914;2023-06-22T06:49:23;4.97;;;4.50;;
16197;SDS011;8206;51.440;6.914;2023-06-22T06:51:51;3.88;;;3.65;;
16197;SDS011;8206;51.440;6.914;2023-06-22T06:54:18;5.03;;;4.63;;
16197;SDS011;8206;51.440;6.914;2023-06-22T06:56:45;3.45;;;3.17;;
16197;SDS011;8206;51.440;6.914;2023-06-22T06:59:13;3.90;;;3.70;;
16197;SDS011;8206;51.440;6.914;2023-06-22T07:01:40;4.65;;;4.35;;
16197;SDS011;8206;51.440;6.914;2023-06-22T07:04:06;4.60;;;4.30;;
16197;SDS011;8206;51.440;6.914;2023-06-22T07:06:33;4.43;;;4.10;;
16197;SDS011;8206;51.440;6.914;2023-06-22T07:09:01;7.30;;;5.45;;
16197;SDS011;8206;51.440;6.914;2023-06-22T07:11:28;3.55;;;3.25;;
16197;SDS011;8206;51.440;6.914;2023-06-22T07:13:55;7.47;;;6.22;;
16197;SDS011;8206;51.440;6.914;2023-06-22T07:16:22;4.43;;;4.03;;
16197;SDS011;8206;51.440;6.914;2023-06-22T07:18:50;4.47;;;4.22;;
16197;SDS011;8206;51.440;6.914;2023-06-22T07:21:17;3.47;;;3.28;;
16197;SDS011;8206;51.440;6.914;2023-06-22T07:23:44;2.92;;;2.72;;
16197;SDS011;8206;51.440;6.914;2023-06-22T07:26:12;3.75;;;3.45;;
16197;SDS011;8206;51.440;6.914;2023-06-22T07:28:38;3.55;;;3.35;;
16197;SDS011;8206;51.440;6.914;2023-06-22T07:31:06;5.07;;;4.75;;
16197;SDS011;8206;51.440;6.914;2023-06-22T07:33:33;4.82;;;4.53;;
16197;SDS011;8206;51.440;6.914;2023-06-22T07:35:59;3.65;;;3.40;;
16197;SDS011;8206;51.440;6.914;2023-06-22T07:38:27;3.40;;;3.10;;
16197;SDS011;8206;51.440;6.914;2023-06-22T07:40:54;4.60;;;4.15;;
16197;SDS011;8206;51.440;6.914;2023-06-22T07:43:22;9.35;;;4.28;;
16197;SDS011;8206;51.440;6.914;2023-06-22T07:45:49;4.10;;;3.90;;
16197;SDS011;8206;51.440;6.914;2023-06-22T07:48:19;3.10;;;2.47;;
16197;SDS011;8206;51.440;6.914;2023-06-22T07:50:47;6.30;;;4.65;;
16197;SDS011;8206;51.440;6.914;2023-06-22T07:53:14;4.35;;;3.95;;
16197;SDS011;8206;51.440;6.914;2023-06-22T07:55:41;4.68;;;4.38;;
16197;SDS011;8206;51.440;6.914;2023-06-22T07:58:07;5.03;;;4.22;;
16197;SDS011;8206;51.440;6.914;2023-06-22T08:00:35;3.63;;;3.33;;
16197;SDS011;8206;51.440;6.914;2023-06-22T08:03:02;12.82;;;5.35;;
16197;SDS011;8206;51.440;6.914;2023-06-22T08:05:30;5.47;;;4.13;;
16197;SDS011;8206;51.440;6.914;2023-06-22T08:07:56;4.88;;;3.80;;
16197;SDS011;8206;51.440;6.914;2023-06-22T08:10:23;5.10;;;4.57;;
16197;SDS011;8206;51.440;6.914;2023-06-22T08:12:50;4.20;;;3.15;;
16197;SDS011;8206;51.440;6.914;2023-06-22T08:15:18;4.43;;;4.13;;
16197;SDS011;8206;51.440;6.914;2023-06-22T08:17:46;4.97;;;4.57;;
16197;SDS011;8206;51.440;6.914;2023-06-22T08:20:12;4.05;;;3.85;;
16197;SDS011;8206;51.440;6.914;2023-06-22T08:22:39;2.80;;;2.70;;
16197;SDS011;8206;51.440;6.914;2023-06-22T08:25:07;4.95;;;4.53;;
16197;SDS011;8206;51.440;6.914;2023-06-22T08:27:35;8.20;;;5.10;;
16197;SDS011;8206;51.440;6.914;2023-06-22T08:30:02;3.88;;;3.63;;
16197;SDS011;8206;51.440;6.914;2023-06-22T08:32:29;3.90;;;3.08;;
16197;SDS011;8206;51.440;6.914;2023-06-22T08:34:59;5.55;;;4.80;;
16197;SDS011;8206;51.440;6.914;2023-06-22T08:37:25;5.03;;;4.00;;
16197;SDS011;8206;51.440;6.914;2023-06-22T08:39:56;4.38;;;4.13;;
16197;SDS011;8206;51.440;6.914;2023-06-22T08:42:23;5.38;;;3.72;;
16197;SDS011;8206;51.440;6.914;2023-06-22T08:44:50;3.97;;;3.75;;
16197;SDS011;8206;51.440;6.914;2023-06-22T08:47:17;9.13;;;4.35;;
16197;SDS011;8206;51.440;6.914;2023-06-22T08:49:44;4.95;;;4.55;;
16197;SDS011;8206;51.440;6.914;2023-06-22T08:52:12;5.72;;;5.22;;
16197;SDS011;8206;51.440;6.914;2023-06-22T08:54:39;3.78;;;3.47;;
16197;SDS011;8206;51.440;6.914;2023-06-22T08:57:06;2.63;;;2.53;;
16197;SDS011;8206;51.440;6.914;2023-06-22T08:59:33;4.40;;;4.10;;
16197;SDS011;8206;51.440;6.914;2023-06-22T09:01:59;3.47;;;3.28;;
16197;SDS011;8206;51.440;6.914;2023-06-22T09:04:26;3.00;;;2.78;;
16197;SDS011;8206;51.440;6.914;2023-06-22T09:06:53;3.60;;;3.40;;
16197;SDS011;8206;51.440;6.914;2023-06-22T09:09:21;3.70;;;3.05;;
16197;SDS011;8206;51.440;6.914;2023-06-22T09:11:48;7.72;;;4.63;;
16197;SDS011;8206;51.440;6.914;2023-06-22T09:14:14;2.90;;;2.70;;
16197;SDS011;8206;51.440;6.914;2023-06-22T09:16:41;2.85;;;2.70;;
16197;SDS011;8206;51.440;6.914;2023-06-22T09:19:08;6.43;;;4.18;;
16197;SDS011;8206;51.440;6.914;2023-06-22T09:21:34;5.57;;;5.18;;
16197;SDS011;8206;51.440;6.914;2023-06-22T09:24:01;4.07;;;3.78;;
16197;SDS011;8206;51.440;6.914;2023-06-22T09:26:29;3.42;;;3.22;;
16197;SDS011;8206;51.440;6.914;2023-06-22T09:28:56;3.53;;;3.33;;
16197;SDS011;8206;51.440;6.914;2023-06-22T09:31:22;4.40;;;4.10;;
16197;SDS011;8206;51.440;6.914;2023-06-22T09:33:50;3.33;;;3.03;;
16197;SDS011;8206;51.440;6.914;2023-06-22T09:36:18;7.00;;;3.42;;
16197;SDS011;8206;51.440;6.914;2023-06-22T09:38:45;3.10;;;2.88;;
16197;SDS011;8206;51.440;6.914;2023-06-22T09:41:11;4.72;;;4.32;;
16197;SDS011;8206;51.440;6.914;2023-06-22T09:43:39;3.30;;;3.15;;
16197;SDS011;8206;51.440;6.914;2023-06-22T09:46:06;5.18;;;4.00;;
16197;SDS011;8206;51.440;6.914;2023-06-22T09:48:34;3.20;;;3.00;;
16197;SDS011;8206;51.440;6.914;2023-06-22T09:51:01;5.93;;;4.45;;
16197;SDS011;8206;51.440;6.914;2023-06-22T09:53:27;1.48;;;1.40;;
16197;SDS011;8206;51.440;6.914;2023-06-22T09:55:54;5.25;;;3.58;;
16197;SDS011;8206;51.440;6.914;2023-06-22T09:58:22;2.25;;;2.13;;
16197;SDS011;8206;51.440;6.914;2023-06-22T10:00:50;3.92;;;3.28;;
16197;SDS011;8206;51.440;6.914;2023-06-22T10:03:18;3.63;;;2.75;;
16197;SDS011;8206;51.440;6.914;2023-06-22T10:05:44;3.50;;;3.35;;
16197;SDS011;8206;51.440;6.914;2023-06-22T10:08:11;4.35;;;3.88;;
16197;SDS011;8206;51.440;6.914;2023-06-22T10:10:38;3.92;;;3.58;;
16197;SDS011;8206;51.440;6.914;2023-06-22T10:13:07;2.85;;;2.75;;
16197;SDS011;8206;51.440;6.914;2023-06-22T10:15:36;6.32;;;4.68;;
16197;SDS011;8206;51.440;6.914;2023-06-22T10:18:04;2.58;;;2.15;;
16197;SDS011;8206;51.440;6.914;2023-06-22T10:20:31;3.33;;;3.00;;
16197;SDS011;8206;51.440;6.914;2023-06-22T10:22:57;3.83;;;3.30;;
16197;SDS011;8206;51.440;6.914;2023-06-22T10:25:24;2.55;;;2.35;;
16197;SDS011;8206;51.440;6.914;2023-06-22T10:27:51;3.03;;;2.83;;
16197;SDS011;8206;51.440;6.914;2023-06-22T10:30:17;2.72;;;2.58;;
16197;SDS011;8206;51.440;6.914;2023-06-22T10:32:44;4.57;;;3.97;;
16197;SDS011;8206;51.440;6.914;2023-06-22T10:35:12;3.05;;;2.75;;
16197;SDS011;8206;51.440;6.914;2023-06-22T10:37:41;3.75;;;2.97;;
16197;SDS011;8206;51.440;6.914;2023-06-22T10:40:08;4.00;;;3.80;;
16197;SDS011;8206;51.440;6.914;2023-06-22T10:42:36;3.22;;;2.88;;
16197;SDS011;8206;51.440;6.914;2023-06-22T10:45:02;2.05;;;1.92;;
16197;SDS011;8206;51.440;6.914;2023-06-22T10:47:29;3.03;;;2.83;;
16197;SDS011;8206;51.440;6.914;2023-06-22T10:49:56;2.35;;;2.15;;
16197;SDS011;8206;51.440;6.914;2023-06-22T10:52:24;3.88;;;3.42;;
16197;SDS011;8206;51.440;6.914;2023-06-22T10:54:51;3.85;;;2.67;;
16197;SDS011;8206;51.440;6.914;2023-06-22T10:57:18;4.80;;;2.92;;
16197;SDS011;8206;51.440;6.914;2023-06-22T10:59:45;4.05;;;3.80;;
16197;SDS011;8206;51.440;6.914;2023-06-22T11:02:12;3.60;;;2.58;;
16197;SDS011;8206;51.440;6.914;2023-06-22T11:04:38;6.30;;;3.03;;
16197;SDS011;8206;51.440;6.914;2023-06-22T11:07:05;1.98;;;1.88;;
16197;SDS011;8206;51.440;6.914;2023-06-22T11:09:33;2.00;;;1.90;;
16197;SDS011;8206;51.440;6.914;2023-06-22T11:12:00;2.58;;;2.45;;
16197;SDS011;8206;51.440;6.914;2023-06-22T11:14:27;2.65;;;2.33;;
16197;SDS011;8206;51.440;6.914;2023-06-22T11:16:54;3.47;;;3.28;;
16197;SDS011;8206;51.440;6.914;2023-06-22T11:19:21;3.90;;;3.70;;
16197;SDS011;8206;51.440;6.914;2023-06-22T11:21:48;5.13;;;3.45;;
16197;SDS011;8206;51.440;6.914;2023-06-22T11:24:14;4.90;;;4.53;;
16197;SDS011;8206;51.440;6.914;2023-06-22T11:26:43;2.50;;;2.40;;
16197;SDS011;8206;51.440;6.914;2023-06-22T11:29:10;3.38;;;3.17;;
16197;SDS011;8206;51.440;6.914;2023-06-22T11:31:37;3.33;;;3.13;;
16197;SDS011;8206;51.440;6.914;2023-06-22T11:34:04;7.28;;;3.85;;
16197;SDS011;8206;51.440;6.914;2023-06-22T11:36:30;3.78;;;3.47;;
16197;SDS011;8206;51.440;6.914;2023-06-22T11:38:58;5.85;;;4.75;;
16197;SDS011;8206;51.440;6.914;2023-06-22T11:41:25;4.63;;;3.15;;
16197;SDS011;8206;51.440;6.914;2023-06-22T11:43:53;3.60;;;3.22;;
16197;SDS011;8206;51.440;6.914;2023-06-22T11:46:19;3.47;;;3.28;;
16197;SDS011;8206;51.440;6.914;2023-06-22T11:48:46;3.58;;;3.33;;
16197;SDS011;8206;51.440;6.914;2023-06-22T11:51:13;3.70;;;3.47;;
16197;SDS011;8206;51.440;6.914;2023-06-22T11:53:39;5.60;;;5.15;;
16197;SDS011;8206;51.440;6.914;2023-06-22T11:56:06;3.50;;;3.30;;
16197;SDS011;8206;51.440;6.914;2023-06-22T11:58:33;3.83;;;3.33;;
16197;SDS011;8206;51.440;6.914;2023-06-22T12:01:01;6.05;;;5.25;;
16197;SDS011;8206;51.440;6.914;2023-06-22T12:03:27;5.95;;;5.55;;
16197;SDS011;8206;51.440;6.914;2023-06-22T12:05:55;4.47;;;4.13;;
16197;SDS011;8206;51.440;6.914;2023-06-22T12:08:21;6.32;;;5.93;;
16197;SDS011;8206;51.440;6.914;2023-06-22T12:10:49;4.30;;;3.78;;
16197;SDS011;8206;51.440;6.914;2023-06-22T12:13:17;4.20;;;4.00;;
16197;SDS011;8206;51.440;6.914;2023-06-22T12:15:43;4.60;;;4.30;;
16197;SDS011;8206;51.440;6.914;2023-06-22T12:18:11;6.00;;;5.40;;
16197;SDS011;8206;51.440;6.914;2023-06-22T12:20:39;5.97;;;5.47;;
16197;SDS011;8206;51.440;6.914;2023-06-22T12:23:06;5.10;;;4.80;;
16197;SDS011;8206;51.440;6.914;2023-06-22T12:25:32;5.95;;;5.50;;
16197;SDS011;8206;51.440;6.914;2023-06-22T12:27:59;16.98;;;6.00;;
16197;SDS011;8206;51.440;6.914;2023-06-22T12:30:26;7.28;;;6.60;;
16197;SDS011;8206;51.440;6.914;2023-06-22T12:32:52;5.53;;;5.13;;
16197;SDS011;8206;51.440;6.914;2023-06-22T12:35:20;5.40;;;4.97;;
16197;SDS011;8206;51.440;6.914;2023-06-22T12:37:47;5.07;;;4.68;;
16197;SDS011;8206;51.440;6.914;2023-06-22T12:40:14;5.78;;;5.40;;
16197;SDS011;8206;51.440;6.914;2023-06-22T12:42:40;5.78;;;5.38;;
16197;SDS011;8206;51.440;6.914;2023-06-22T12:45:08;5.70;;;5.25;;
16197;SDS011;8206;51.440;6.914;2023-06-22T12:47:35;5.45;;;5.05;;
16197;SDS011;8206;51.440;6.914;2023-06-22T12:50:02;5.70;;;5.40;;
16197;SDS011;8206;51.440;6.914;2023-06-22T12:52:31;6.68;;;6.07;;
16197;SDS011;8206;51.440;6.914;2023-06-22T12:54:57;6.13;;;5.68;;
16197;SDS011;8206;51.440;6.914;2023-06-22T12:57:24;5.95;;;5.45;;
16197;SDS011;8206;51.440;6.914;2023-06-22T12:59:51;6.13;;;5.70;;
16197;SDS011;8206;51.440;6.914;2023-06-22T13:02:18;9.43;;;6.03;;
16197;SDS011;8206;51.440;6.914;2023-06-22T13:04:44;6.88;;;6.30;;
16197;SDS011;8206;51.440;6.914;2023-06-22T13:07:11;8.07;;;6.07;;
16197;SDS011;8206;51.440;6.914;2023-06-22T13:09:39;6.65;;;6.25;;
16197;SDS011;8206;51.440;6.914;2023-06-22T13:12:06;7.55;;;6.90;;
16197;SDS011;8206;51.440;6.914;2023-06-22T13:14:33;6.38;;;5.88;;
16197;SDS011;8206;51.440;6.914;2023-06-22T13:17:00;9.75;;;6.32;;
16197;SDS011;8206;51.440;6.914;2023-06-22T13:19:26;6.57;;;6.20;;
16197;SDS011;8206;51.440;6.914;2023-06-22T13:21:57;5.57;;;5.18;;
16197;SDS011;8206;51.440;6.914;2023-06-22T13:24:24;5.22;;;5.03;;
16197;SDS011;8206;51.440;6.914;2023-06-22T13:26:52;7.82;;;7.10;;
16197;SDS011;8206;51.440;6.914;2023-06-22T13:29:18;6.78;;;6.38;;
16197;SDS011;8206;51.440;6.914;2023-06-22T13:31:45;7.20;;;6.65;;
16197;SDS011;8206;51.440;6.914;2023-06-22T13:34:12;6.25;;;5.85;;
16197;SDS011;8206;51.440;6.914;2023-06-22T13:36:38;7.10;;;6.07;;
16197;SDS011;8206;51.440;6.914;2023-06-22T13:39:05;6.45;;;5.97;;
16197;SDS011;8206;51.440;6.914;2023-06-22T13:41:32;7.30;;;6.50;;
16197;SDS011;8206;51.440;6.914;2023-06-22T13:44:00;8.50;;;5.22;;
16197;SDS011;8206;51.440;6.914;2023-06-22T13:46:26;6.25;;;5.85;;
16197;SDS011;8206;51.440;6.914;2023-06-22T13:48:54;6.80;;;6.10;;
16197;SDS011;8206;51.440;6.914;2023-06-22T13:51:20;6.13;;;5.72;;
16197;SDS011;8206;51.440;6.914;2023-06-22T13:53:47;5.55;;;5.05;;
16197;SDS011;8206;51.440;6.914;2023-06-22T13:56:14;6.40;;;6.00;;
16197;SDS011;8206;51.440;6.914;2023-06-22T13:58:40;6.55;;;6.00;;
16197;SDS011;8206;51.440;6.914;2023-06-22T14:01:10;6.75;;;5.72;;
16197;SDS011;8206;51.440;6.914;2023-06-22T14:03:36;6.30;;;5.82;;
16197;SDS011;8206;51.440;6.914;2023-06-22T14:06:03;5.35;;;5.03;;
16197;SDS011;8206;51.440;6.914;2023-06-22T14:08:30;4.45;;;4.15;;
16197;SDS011;8206;51.440;6.914;2023-06-22T14:10:56;5.47;;;4.95;;
16197;SDS011;8206;51.440;6.914;2023-06-22T14:13:23;6.57;;;6.18;;
16197;SDS011;8206;51.440;6.914;2023-06-22T14:15:50;7.22;;;4.45;;
16197;SDS011;8206;51.440;6.914;2023-06-22T14:18:18;8.13;;;6.40;;
16197;SDS011;8206;51.440;6.914;2023-06-22T14:20:47;12.02;;;5.70;;
16197;SDS011;8206;51.440;6.914;2023-06-22T14:23:14;5.53;;;5.22;;
16197;SDS011;8206;51.440;6.914;2023-06-22T14:25:41;6.28;;;5.75;;
16197;SDS011;8206;51.440;6.914;2023-06-22T14:28:07;7.10;;;5.88;;
16197;SDS011;8206;51.440;6.914;2023-06-22T14:30:34;7.15;;;6.75;;
16197;SDS011;8206;51.440;6.914;2023-06-22T14:33:00;7.85;;;5.25;;
16197;SDS011;8206;51.440;6.914;2023-06-22T14:35:28;9.25;;;5.53;;
16197;SDS011;8206;51.440;6.914;2023-06-22T14:37:55;6.00;;;5.47;;
16197;SDS011;8206;51.440;6.914;2023-06-22T14:40:22;5.13;;;4.80;;
16197;SDS011;8206;51.440;6.914;2023-06-22T14:42:48;7.18;;;6.07;;
16197;SDS011;8206;51.440;6.914;2023-06-22T14:45:15;5.22;;;4.82;;
16197;SDS011;8206;51.440;6.914;2023-06-22T14:47:42;5.35;;;4.53;;
16197;SDS011;8206;51.440;6.914;2023-06-22T14:50:09;4.32;;;3.85;;
16197;SDS011;8206;51.440;6.914;2023-06-22T14:52:37;8.48;;;6.30;;
16197;SDS011;8206;51.440;6.914;2023-06-22T14:55:04;5.78;;;5.38;;
16197;SDS011;8206;51.440;6.914;2023-06-22T14:57:31;5.63;;;5.20;;
16197;SDS011;8206;51.440;6.914;2023-06-22T14:59:58;6.72;;;6.22;;
16197;SDS011;8206;51.440;6.914;2023-06-22T15:02:26;6.97;;;5.45;;